createdAt,value
2018-06-03T00:01:49.302Z,95.80
2018-06-03T00:04:16.829Z,95.90
2018-06-03T00:06:44.377Z,96.10
2018-06-03T00:09:11.926Z,96.20
2018-06-03T00:11:39.510Z,96.20
2018-06-03T00:14:07.902Z,96.20
2018-06-03T00:16:35.446Z,96.40
2018-06-03T00:19:02.994Z,96.40
2018-06-03T00:21:42.417Z,96.40
2018-06-03T00:24:10.034Z,96.30
2018-06-03T00:26:37.594Z,96.50
2018-06-03T00:29:05.190Z,96.50
2018-06-03T00:31:32.757Z,96.50
2018-06-03T00:36:45.461Z,96.40
2018-06-03T00:39:13.006Z,96.40
2018-06-03T00:41:40.546Z,96.40
2018-06-03T00:44:08.095Z,96.50
2018-06-03T00:46:35.650Z,96.50
2018-06-03T00:49:03.210Z,96.50
2018-06-03T00:51:30.737Z,96.50
2018-06-03T00:53:58.269Z,96.50
2018-06-03T00:56:43.381Z,96.50
2018-06-03T00:59:10.936Z,96.50
2018-06-03T01:01:38.509Z,96.50
2018-06-03T01:04:06.063Z,96.40
2018-06-03T01:06:33.613Z,96.40
2018-06-03T01:09:01.158Z,96.30
2018-06-03T01:11:28.715Z,96.30
2018-06-03T01:13:56.303Z,96.20
2018-06-03T01:16:23.846Z,96.20
2018-06-03T01:18:51.398Z,96.20
2018-06-03T01:21:19.002Z,96.30
2018-06-03T01:23:46.572Z,96.30
2018-06-03T01:26:14.121Z,96.30
2018-06-03T01:28:41.691Z,96.40
2018-06-03T01:31:09.247Z,96.40
2018-06-03T01:33:36.802Z,96.40
2018-06-03T01:36:04.381Z,96.40
2018-06-03T01:38:31.937Z,96.40
2018-06-03T01:40:59.498Z,96.40
2018-06-03T01:43:27.076Z,96.40
2018-06-03T01:45:56.731Z,96.40
2018-06-03T01:48:24.299Z,96.50
2018-06-03T01:50:51.862Z,96.50
2018-06-03T01:53:19.414Z,96.50
2018-06-03T01:55:46.962Z,96.50
2018-06-03T01:58:14.513Z,96.60
2018-06-03T02:00:42.061Z,96.70
2018-06-03T02:03:09.607Z,96.80
2018-06-03T02:05:37.153Z,96.80
2018-06-03T02:08:04.717Z,96.80
2018-06-03T02:10:32.245Z,96.90
2018-06-03T02:12:59.792Z,96.90
2018-06-03T02:15:27.334Z,96.90
2018-06-03T02:17:54.870Z,96.90
2018-06-03T02:20:22.401Z,96.90
2018-06-03T02:22:49.954Z,96.90
2018-06-03T02:25:17.537Z,96.90
2018-06-03T02:27:45.088Z,97.20
2018-06-03T02:30:12.647Z,97.00
2018-06-03T02:32:40.197Z,97.10
2018-06-03T02:35:07.742Z,97.00
2018-06-03T02:37:35.282Z,97.00
2018-06-03T02:40:02.873Z,97.00
2018-06-03T02:42:30.432Z,96.90
2018-06-03T02:44:57.973Z,96.90
2018-06-03T02:47:25.535Z,96.90
2018-06-03T02:49:53.097Z,97.00
2018-06-03T02:52:20.637Z,97.10
2018-06-03T02:54:48.209Z,97.10
2018-06-03T02:57:15.745Z,97.20
2018-06-03T02:59:43.281Z,97.20
2018-06-03T03:02:10.809Z,97.30
2018-06-03T03:04:38.362Z,97.20
2018-06-03T03:07:05.914Z,97.20
2018-06-03T03:09:33.469Z,97.20
2018-06-03T03:12:01.035Z,97.30
2018-06-03T03:14:28.610Z,97.30
2018-06-03T03:16:56.147Z,97.30
2018-06-03T03:19:23.698Z,97.20
2018-06-03T03:21:51.221Z,97.20
2018-06-03T03:24:18.766Z,97.20
2018-06-03T03:26:46.310Z,97.20
2018-06-03T03:29:13.870Z,97.30
2018-06-03T03:31:41.401Z,97.30
2018-06-03T03:34:11.031Z,97.40
2018-06-03T03:36:38.579Z,97.40
2018-06-03T03:39:06.366Z,97.40
2018-06-03T03:41:33.916Z,97.30
2018-06-03T03:44:01.474Z,97.30
2018-06-03T03:46:29.026Z,97.20
2018-06-03T03:48:56.570Z,97.10
2018-06-03T03:51:24.134Z,97.10
2018-06-03T03:53:51.814Z,97.10
2018-06-03T03:56:19.378Z,97.00
2018-06-03T03:58:46.921Z,97.40
2018-06-03T04:01:14.473Z,97.10
2018-06-03T04:03:42.010Z,97.10
2018-06-03T04:06:09.588Z,97.10
2018-06-03T04:08:37.125Z,97.10
2018-06-03T04:11:04.874Z,97.00
2018-06-03T04:13:32.426Z,96.90
2018-06-03T04:15:59.994Z,96.80
2018-06-03T04:18:27.554Z,96.80
2018-06-03T04:20:55.093Z,96.60
2018-06-03T04:23:22.629Z,96.60
2018-06-03T04:25:50.193Z,96.50
2018-06-03T04:28:17.747Z,96.40
2018-06-03T04:30:45.286Z,96.20
2018-06-03T04:33:12.837Z,96.10
2018-06-03T04:35:40.394Z,96.30
2018-06-03T04:38:07.987Z,95.70
2018-06-03T04:40:35.541Z,95.40
2018-06-03T04:43:03.094Z,95.40
2018-06-03T04:45:30.654Z,95.40
2018-06-03T04:47:58.203Z,95.10
2018-06-03T04:50:25.908Z,95.00
2018-06-03T04:52:53.467Z,95.00
2018-06-03T04:55:21.014Z,94.70
2018-06-03T04:57:48.580Z,94.70
2018-06-03T05:00:16.122Z,94.00
2018-06-03T05:02:43.662Z,93.90
2018-06-03T05:05:11.223Z,93.60
2018-06-03T05:07:38.797Z,93.40
2018-06-03T05:12:33.961Z,93.00
2018-06-03T05:15:01.536Z,92.40
2018-06-03T05:17:29.114Z,92.40
2018-06-03T05:19:56.678Z,92.20
2018-06-03T05:22:24.246Z,91.80
2018-06-03T05:27:19.426Z,91.60
2018-06-03T05:29:46.993Z,91.40
2018-06-03T05:32:14.547Z,91.60
2018-06-03T05:34:42.077Z,91.70
2018-06-03T05:37:09.651Z,91.60
2018-06-03T05:39:37.186Z,91.30
2018-06-03T05:42:04.805Z,90.90
2018-06-03T05:44:32.342Z,90.80
2018-06-03T05:46:59.898Z,90.90
2018-06-03T05:49:27.448Z,90.60
2018-06-03T05:51:55.007Z,90.80
2018-06-03T05:54:22.568Z,91.00
2018-06-03T05:56:50.137Z,91.20
2018-06-03T05:59:17.706Z,91.20
2018-06-03T06:01:45.270Z,91.10
2018-06-03T06:04:12.830Z,91.10
2018-06-03T06:06:40.402Z,91.10
2018-06-03T06:09:07.967Z,91.00
2018-06-03T06:11:35.517Z,91.00
2018-06-03T06:14:03.074Z,91.20
2018-06-03T06:16:30.618Z,91.20
2018-06-03T06:18:58.777Z,91.20
2018-06-03T06:21:26.313Z,91.10
2018-06-03T06:26:21.510Z,91.10
2018-06-03T06:28:49.053Z,91.00
2018-06-03T06:31:16.619Z,91.00
2018-06-03T06:33:44.189Z,91.00
2018-06-03T06:36:11.729Z,91.00
2018-06-03T06:38:39.262Z,91.00
2018-06-03T06:41:06.818Z,90.90
2018-06-03T06:43:34.352Z,90.80
2018-06-03T06:46:01.908Z,90.70
2018-06-03T06:48:29.466Z,90.70
2018-06-03T06:50:57.016Z,90.20
2018-06-03T06:53:24.593Z,89.60
2018-06-03T06:55:52.165Z,87.70
2018-06-03T06:58:19.717Z,86.90
2018-06-03T07:00:47.286Z,86.80
2018-06-03T07:03:14.825Z,86.20
2018-06-03T07:08:09.995Z,84.90
2018-06-03T07:10:37.547Z,85.30
2018-06-03T07:13:05.258Z,84.70
2018-06-03T07:15:32.786Z,84.10
2018-06-03T07:18:00.318Z,84.20
2018-06-03T07:20:27.870Z,83.90
2018-06-03T07:22:55.418Z,83.80
2018-06-03T07:25:23.002Z,83.40
2018-06-03T07:27:50.538Z,83.20
2018-06-03T07:30:18.080Z,82.80
2018-06-03T07:32:45.617Z,82.70
2018-06-03T07:35:13.178Z,82.30
2018-06-03T07:37:40.718Z,81.80
2018-06-03T07:40:08.271Z,81.70
2018-06-03T07:42:35.810Z,81.00
2018-06-03T07:47:30.993Z,80.50
2018-06-03T07:49:58.562Z,80.40
2018-06-03T07:52:26.118Z,80.00
2018-06-03T07:54:53.661Z,78.90
2018-06-03T07:57:21.211Z,79.30
2018-06-03T07:59:48.737Z,79.20
2018-06-03T08:02:16.286Z,78.30
2018-06-03T08:04:43.842Z,77.70
2018-06-03T08:07:11.389Z,77.90
2018-06-03T08:09:38.939Z,77.90
2018-06-03T08:12:06.478Z,77.70
2018-06-03T08:14:34.038Z,78.00
2018-06-03T08:17:01.621Z,78.30
2018-06-03T08:19:29.169Z,79.00
2018-06-03T08:21:56.717Z,79.30
2018-06-03T08:24:24.290Z,79.60
2018-06-03T08:26:51.846Z,80.10
2018-06-03T08:29:19.386Z,80.30
2018-06-03T08:31:46.935Z,80.30
2018-06-03T08:34:14.487Z,80.40
2018-06-03T08:36:42.051Z,80.50
2018-06-03T08:39:09.677Z,80.30
2018-06-03T08:41:37.183Z,80.10
2018-06-03T08:44:04.806Z,79.50
2018-06-03T08:46:32.350Z,79.30
2018-06-03T08:48:59.894Z,79.40
2018-06-03T08:51:27.434Z,79.10
2018-06-03T08:53:54.975Z,78.60
2018-06-03T08:56:22.574Z,77.90
2018-06-03T08:58:50.126Z,77.30
2018-06-03T09:01:17.665Z,76.00
2018-06-03T09:03:45.206Z,75.50
2018-06-03T09:06:12.778Z,75.70
2018-06-03T09:08:40.339Z,76.50
2018-06-03T09:14:30.787Z,76.70
2018-06-03T09:17:11.282Z,76.60
2018-06-03T09:22:54.954Z,75.00
2018-06-03T09:25:22.562Z,74.10
2018-06-03T09:27:50.110Z,74.10
2018-06-03T09:30:17.665Z,73.90
2018-06-03T09:32:45.225Z,73.50
2018-06-03T09:35:12.767Z,73.00
2018-06-03T09:37:40.297Z,72.20
2018-06-03T09:40:07.857Z,71.60
2018-06-03T09:42:35.421Z,70.40
2018-06-03T09:45:02.986Z,70.30
2018-06-03T09:47:30.537Z,70.00
2018-06-03T09:49:58.057Z,69.30
2018-06-03T09:52:25.601Z,69.10
2018-06-03T09:54:53.130Z,69.90
2018-06-03T09:57:20.678Z,69.70
2018-06-03T09:59:48.218Z,69.10
2018-06-03T10:02:15.751Z,69.30
2018-06-03T10:04:43.285Z,68.90
2018-06-03T10:07:10.852Z,68.50
2018-06-03T10:09:38.409Z,67.70
2018-06-03T10:15:11.106Z,67.50
2018-06-03T10:17:38.666Z,66.00
2018-06-03T10:20:06.210Z,65.80
2018-06-03T10:22:33.749Z,65.10
2018-06-03T10:25:01.297Z,63.40
2018-06-03T10:27:28.853Z,62.90
2018-06-03T10:29:56.414Z,62.00
2018-06-03T10:32:25.021Z,60.40
2018-06-03T10:34:52.577Z,60.50
2018-06-03T10:37:20.134Z,60.40
2018-06-03T10:39:47.682Z,60.50
2018-06-03T10:42:15.210Z,60.30
2018-06-03T10:44:42.761Z,61.10
2018-06-03T10:47:10.346Z,60.00
2018-06-03T10:49:37.910Z,58.90
2018-06-03T10:52:05.462Z,57.70
2018-06-03T10:54:33.054Z,55.70
2018-06-03T10:57:00.554Z,55.00
2018-06-03T10:59:28.115Z,54.90
2018-06-03T11:01:55.670Z,53.30
2018-06-03T11:04:23.214Z,52.90
2018-06-03T11:06:50.755Z,52.40
2018-06-03T11:09:18.303Z,52.30
2018-06-03T11:11:45.832Z,51.80
2018-06-03T11:14:13.378Z,51.00
2018-06-03T11:16:40.927Z,49.60
2018-06-03T11:19:08.474Z,49.00
2018-06-03T11:21:36.014Z,49.00
2018-06-03T11:26:31.208Z,49.40
2018-06-03T11:28:58.758Z,49.30
2018-06-03T11:31:26.285Z,49.50
2018-06-03T11:33:53.826Z,50.00
2018-06-03T11:36:21.378Z,50.70
2018-06-03T11:38:48.918Z,51.60
2018-06-03T11:41:16.826Z,51.00
2018-06-03T11:43:44.382Z,49.90
2018-06-03T11:46:11.942Z,50.20
2018-06-03T11:48:39.511Z,50.40
2018-06-03T11:51:07.067Z,50.60
2018-06-03T11:53:34.648Z,49.20
2018-06-03T11:56:02.178Z,48.10
2018-06-03T11:58:52.833Z,46.60
2018-06-03T12:01:20.401Z,45.80
2018-06-03T12:03:47.952Z,45.10
2018-06-03T12:06:15.511Z,44.90
2018-06-03T12:08:43.087Z,44.00
2018-06-03T12:11:10.632Z,42.80
2018-06-03T12:13:38.207Z,42.40
2018-06-03T12:16:05.763Z,42.00
2018-06-03T12:18:33.316Z,41.70
2018-06-03T12:21:00.890Z,41.50
2018-06-03T12:23:28.422Z,40.60
2018-06-03T12:25:55.979Z,41.10
2018-06-03T12:28:23.533Z,42.50
2018-06-03T12:30:51.099Z,43.50
2018-06-03T12:33:18.650Z,43.60
2018-06-03T12:35:46.228Z,43.40
2018-06-03T12:38:13.770Z,42.30
2018-06-03T12:40:41.328Z,43.00
2018-06-03T12:43:08.874Z,43.90
2018-06-03T12:45:36.453Z,43.10
2018-06-03T12:48:04.290Z,43.90
2018-06-03T12:50:31.829Z,43.70
2018-06-03T12:52:59.366Z,42.70
2018-06-03T12:55:26.906Z,42.60
2018-06-03T12:57:54.446Z,42.30
2018-06-03T13:00:21.989Z,42.30
2018-06-03T13:02:49.529Z,42.10
2018-06-03T13:05:17.066Z,41.70
2018-06-03T13:07:44.627Z,41.20
2018-06-03T13:10:12.177Z,41.00
2018-06-03T13:12:40.646Z,40.60
2018-06-03T13:15:08.198Z,41.40
2018-06-03T13:17:35.753Z,41.70
2018-06-03T13:20:03.812Z,42.10
2018-06-03T13:22:31.361Z,41.80
2018-06-03T13:24:58.906Z,42.00
2018-06-03T13:27:26.451Z,41.30
2018-06-03T13:29:53.998Z,41.00
2018-06-03T13:32:21.558Z,42.20
2018-06-03T13:34:49.106Z,43.10
2018-06-03T13:37:16.660Z,43.00
2018-06-03T13:39:44.198Z,42.30
2018-06-03T13:42:11.753Z,42.30
2018-06-03T13:44:39.289Z,42.00
2018-06-03T13:47:06.867Z,42.00
2018-06-03T13:49:34.426Z,41.90
2018-06-03T13:52:01.987Z,42.00
2018-06-03T13:54:29.529Z,41.90
2018-06-03T13:59:24.693Z,42.10
2018-06-03T14:05:19.626Z,43.00
2018-06-03T14:07:47.195Z,42.80
2018-06-03T14:13:14.429Z,43.00
2018-06-03T14:21:46.005Z,45.50
2018-06-03T14:24:13.554Z,45.40
2018-06-03T14:26:41.097Z,45.40
2018-06-03T14:29:08.638Z,45.20
2018-06-03T14:31:36.165Z,44.70
2018-06-03T14:34:03.750Z,43.60
2018-06-03T14:36:31.303Z,43.60
2018-06-03T14:38:58.846Z,43.50
2018-06-03T14:41:26.377Z,43.90
2018-06-03T14:43:53.930Z,43.70
2018-06-03T14:46:21.478Z,43.50
2018-06-03T14:48:49.047Z,42.90
2018-06-03T14:51:16.597Z,42.70
2018-06-03T14:53:44.129Z,43.00
2018-06-03T14:56:11.667Z,43.80
2018-06-03T14:58:39.153Z,44.70
2018-06-03T15:01:06.714Z,45.00
2018-06-03T15:03:34.266Z,44.30
2018-06-03T15:06:01.823Z,43.50
2018-06-03T15:08:29.388Z,43.70
2018-06-03T15:10:56.926Z,44.60
2018-06-03T15:13:24.477Z,44.80
2018-06-03T15:15:52.034Z,45.10
2018-06-03T15:18:19.605Z,45.10
2018-06-03T15:20:47.158Z,44.40
2018-06-03T15:23:45.039Z,43.90
2018-06-03T15:26:12.614Z,43.80
2018-06-03T15:28:40.166Z,44.00
2018-06-03T15:31:07.702Z,44.20
2018-06-03T15:33:35.250Z,44.60
2018-06-03T15:36:02.814Z,45.00
2018-06-03T15:38:30.359Z,44.80
2018-06-03T15:40:57.921Z,44.60
2018-06-03T15:43:25.462Z,44.50
2018-06-03T15:45:53.017Z,43.70
2018-06-03T15:48:20.569Z,44.00
2018-06-03T15:50:48.129Z,44.10
2018-06-03T15:53:15.677Z,44.00
2018-06-03T15:55:43.241Z,44.80
2018-06-03T15:58:10.783Z,45.10
2018-06-03T16:00:38.356Z,45.10
2018-06-03T16:03:05.931Z,45.60
2018-06-03T16:05:33.484Z,46.00
2018-06-03T16:08:01.103Z,45.90
2018-06-03T16:10:28.670Z,46.10
2018-06-03T16:12:56.242Z,46.70
2018-06-03T16:15:23.818Z,47.20
2018-06-03T16:17:51.375Z,47.50
2018-06-03T16:20:18.952Z,47.40
2018-06-03T16:22:46.499Z,47.50
2018-06-03T16:25:14.042Z,47.50
2018-06-03T16:27:41.641Z,47.90
2018-06-03T16:30:09.150Z,48.00
2018-06-03T16:32:36.681Z,47.70
2018-06-03T16:35:04.361Z,47.90
2018-06-03T16:39:59.555Z,48.70
2018-06-03T16:42:27.114Z,49.00
2018-06-03T16:44:54.673Z,49.20
2018-06-03T16:47:22.222Z,49.60
2018-06-03T16:49:49.772Z,49.70
2018-06-03T16:52:17.345Z,49.90
2018-06-03T16:54:44.878Z,50.10
2018-06-03T16:57:12.430Z,50.70
2018-06-03T16:59:40.046Z,51.10
2018-06-03T17:02:07.593Z,51.60
2018-06-03T17:04:35.159Z,51.70
2018-06-03T17:07:02.770Z,51.90
2018-06-03T17:09:30.354Z,52.40
2018-06-03T17:11:57.914Z,52.80
2018-06-03T17:14:25.476Z,53.30
2018-06-03T17:16:53.038Z,53.60
2018-06-03T17:19:20.590Z,53.90
2018-06-03T17:21:48.150Z,54.20
2018-06-03T17:24:15.701Z,54.20
2018-06-03T17:26:43.258Z,54.40
2018-06-03T17:29:10.815Z,54.70
2018-06-03T17:31:38.403Z,54.90
2018-06-03T17:34:05.964Z,55.00
2018-06-03T17:36:33.519Z,54.80
2018-06-03T17:39:01.065Z,55.00
2018-06-03T17:41:28.634Z,55.10
2018-06-03T17:43:56.170Z,55.00
2018-06-03T17:46:23.738Z,54.90
2018-06-03T17:48:51.271Z,54.90
2018-06-03T17:51:18.810Z,54.80
2018-06-03T17:53:46.366Z,55.00
2018-06-03T18:01:24.934Z,55.30
2018-06-03T18:03:55.989Z,55.40
2018-06-03T18:06:26.840Z,55.50
2018-06-03T18:08:54.386Z,55.70
2018-06-03T18:11:26.150Z,55.90
2018-06-03T18:13:53.710Z,56.20
2018-06-03T18:16:21.259Z,56.40
2018-06-03T18:18:48.822Z,56.70
2018-06-03T18:21:18.419Z,57.10
2018-06-03T18:23:46.019Z,57.60
2018-06-03T18:26:13.590Z,58.00
2018-06-03T18:28:41.162Z,58.40
2018-06-03T18:31:08.723Z,58.90
2018-06-03T18:33:36.291Z,59.50
2018-06-03T18:36:03.873Z,60.10
2018-06-03T18:38:31.425Z,61.00
2018-06-03T18:40:59.003Z,61.90
2018-06-03T18:43:29.974Z,62.80
2018-06-03T18:45:57.502Z,63.70
2018-06-03T18:48:25.062Z,64.60
2018-06-03T18:50:52.614Z,65.30
2018-06-03T18:53:22.239Z,66.10
2018-06-03T18:55:49.782Z,67.00
2018-06-03T18:58:17.337Z,67.70
2018-06-03T19:00:48.210Z,68.70
2018-06-03T19:03:15.786Z,69.40
2018-06-03T19:05:43.350Z,70.50
2018-06-03T19:11:21.441Z,72.60
2018-06-03T19:13:49.052Z,73.60
2018-06-03T19:16:33.556Z,74.50
2018-06-03T19:19:01.115Z,75.20
2018-06-03T19:21:28.667Z,76.20
2018-06-03T19:23:56.286Z,77.10
2018-06-03T19:26:25.857Z,77.80
2018-06-03T19:28:53.414Z,78.40
2018-06-03T19:31:20.961Z,79.00
2018-06-03T19:33:48.526Z,79.40
2018-06-03T19:36:16.074Z,80.10
2018-06-03T19:38:43.650Z,80.60
2018-06-03T19:41:11.198Z,81.10
2018-06-03T19:43:38.761Z,81.60
2018-06-03T19:46:06.347Z,82.10
2018-06-03T19:48:33.886Z,82.70
2018-06-03T19:51:01.447Z,83.20
2018-06-03T19:53:28.995Z,83.70
2018-06-03T19:55:56.556Z,84.00
2018-06-03T20:00:52.092Z,84.80
2018-06-03T20:03:19.632Z,85.10
2018-06-03T20:05:47.193Z,85.30
2018-06-03T20:08:22.059Z,86.20
2018-06-03T20:11:16.373Z,85.90
2018-06-03T20:13:44.930Z,86.50
2018-06-03T20:16:12.491Z,86.90
2018-06-03T20:21:45.484Z,87.70
2018-06-03T20:24:13.059Z,88.20
2018-06-03T20:26:40.659Z,88.80
2018-06-03T20:29:08.200Z,89.40
2018-06-03T20:31:35.744Z,90.00
2018-06-03T20:34:03.297Z,90.30
2018-06-03T20:36:30.841Z,90.50
2018-06-03T20:38:58.386Z,90.70
2018-06-03T20:41:25.941Z,90.70
2018-06-03T20:43:53.485Z,90.80
2018-06-03T20:46:44.051Z,91.00
2018-06-03T20:49:11.603Z,91.20
2018-06-03T20:51:56.850Z,91.50
2018-06-03T20:54:24.397Z,91.70
2018-06-03T20:59:19.582Z,91.90
2018-06-03T21:02:14.902Z,92.00
2018-06-03T21:04:42.493Z,92.00
2018-06-03T21:07:10.050Z,92.30
2018-06-03T21:09:37.723Z,92.40
2018-06-03T21:12:05.662Z,92.40
2018-06-03T21:14:33.218Z,92.50
2018-06-03T21:17:00.782Z,92.50
2018-06-03T21:19:28.333Z,92.60
2018-06-03T21:21:55.937Z,92.80
2018-06-03T21:24:23.499Z,93.00
2018-06-03T21:26:51.054Z,93.30
2018-06-03T21:29:18.594Z,93.10
2018-06-03T21:31:46.147Z,93.30
2018-06-03T21:34:13.678Z,93.40
2018-06-03T21:36:41.227Z,93.50
2018-06-03T21:39:08.773Z,93.50
2018-06-03T21:41:36.317Z,93.50
2018-06-03T21:44:03.878Z,93.50
2018-06-03T21:46:31.431Z,93.50
2018-06-03T21:48:58.971Z,93.60
2018-06-03T21:51:26.557Z,93.80
2018-06-03T21:53:54.106Z,93.90
2018-06-03T21:56:21.651Z,93.90
2018-06-03T21:58:49.221Z,94.00
2018-06-03T22:01:16.770Z,94.20
2018-06-03T22:03:44.323Z,94.60
2018-06-03T22:06:29.001Z,94.40
2018-06-03T22:08:56.565Z,94.50
2018-06-03T22:11:24.105Z,94.70
2018-06-03T22:13:51.663Z,94.80
2018-06-03T22:16:19.201Z,94.90
2018-06-03T22:18:46.762Z,94.80
2018-06-03T22:21:14.349Z,95.00
2018-06-03T22:23:41.910Z,94.90
2018-06-03T22:26:09.469Z,95.00
2018-06-03T22:28:37.025Z,95.00
2018-06-03T22:31:04.602Z,95.00
2018-06-03T22:33:32.159Z,95.10
2018-06-03T22:35:59.701Z,95.20
2018-06-03T22:38:27.258Z,95.30
2018-06-03T22:40:54.818Z,95.30
2018-06-03T22:43:22.370Z,95.30
2018-06-03T22:45:49.926Z,95.30
2018-06-03T22:48:17.478Z,95.30
2018-06-03T22:50:45.029Z,95.30
2018-06-03T22:53:12.575Z,95.20
2018-06-03T22:55:40.130Z,95.30
2018-06-03T22:58:07.694Z,95.50
2018-06-03T23:00:35.386Z,95.60
2018-06-03T23:03:08.730Z,95.70
2018-06-03T23:05:36.305Z,95.70
2018-06-03T23:08:03.875Z,95.80
2018-06-03T23:10:31.421Z,95.70
2018-06-03T23:12:58.977Z,95.60
2018-06-03T23:15:27.336Z,95.80
2018-06-03T23:17:54.895Z,95.80
2018-06-03T23:20:22.433Z,95.90
2018-06-03T23:22:49.982Z,95.90
2018-06-03T23:25:17.543Z,96.00
2018-06-03T23:27:45.090Z,96.10
2018-06-03T23:30:12.662Z,96.10
2018-06-03T23:32:40.261Z,96.10
2018-06-03T23:35:07.814Z,96.20
2018-06-03T23:37:35.362Z,96.20
2018-06-03T23:40:02.959Z,96.30
2018-06-03T23:42:30.505Z,96.40
2018-06-03T23:44:58.065Z,96.40
2018-06-03T23:47:25.645Z,96.50
2018-06-03T23:49:53.209Z,96.60
2018-06-03T23:52:20.762Z,96.60
2018-06-03T23:54:48.318Z,96.70
2018-06-03T23:57:15.851Z,96.80
2018-06-03T23:59:43.394Z,96.80
